Maersk Bali — 9V7499 — position and weather

sailwx.info

Track history (hours):
 
Tides and Currents Weather Stations Pressure Air Temp Water Temp Dewpoint Dewpoint Depression Visibility Wind Speed Wind Dir Waves Ship Positions

Maersk Bali

Last reported at 2016-Sep-21 09:32 UTC. Time now 2016-Oct-01 19:01 UTC.
Position N 36°08' W 005°26'.
Warning: this ship's position is 10 days out of date.

Length 223 m; draft 11.2 m.

Type: Ship (hazmat cat A). MMSI: 563102000.

Date/timePositionNaut miles runAvg speedWind from/ knotsBaromVisibWave heightAir tempDewpointWater temp
2016-Sep-21 09:32N 36°08' W 005°26'0 0.0
2016-Sep-21 08:29N 36°08' W 005°26'0 0.0
2016-Sep-21 05:32N 36°08' W 005°26'0 0.0
2016-Sep-21 02:32N 36°08' W 005°26'0 0.0
2016-Sep-20 17:05N 36°08' W 005°26'0 0.0
2016-Sep-20 14:32N 36°08' W 005°26'0 0.0
2016-Sep-20 13:32N 36°08' W 005°26'8 2.7
2016-Sep-20 10:34N 36°06' W 005°17'5 1.5
2016-Sep-20 07:18N 36°08' W 005°11'132 5.5
2016-Sep-19 07:33N 36°24' W 002°29'1110.4
2016-Sep-19 06:32N 36°25' W 002°16'  
2016-Sep-16 12:15N 37°00' E 012°10'3011.0
2016-Sep-16 09:33N 36°52' E 012°45'2311.3
2016-Sep-16 07:34N 36°45' E 013°12'4511.3
2016-Sep-16 03:33N 36°32' E 014°07'1111.4
2016-Sep-16 02:34N 36°30' E 014°20'2110.5
2016-Sep-16 00:33N 36°23' E 014°45'2211.0
2016-Sep-15 22:34N 36°20' E 015°12'2210.9
2016-Sep-15 20:30N 36°20' E 015°40'37210.3
2016-Sep-14 08:15N 36°52' E 023°22'710.1
2016-Sep-14 07:32N 36°59' E 023°26'4410.8
2016-Sep-14 03:28N 37°31' E 024°04'  
Track history (hours):
 
Tides and Currents Weather Stations Pressure Air Temp Water Temp Dewpoint Dewpoint Depression Visibility Wind Speed Wind Dir Waves Ship Positions

Maersk Bali

Last reported at 2016-Sep-21 09:32 UTC. Time now 2016-Oct-01 19:01 UTC.
Position N 36°08' W 005°26'.
Warning: this ship's position is 10 days out of date.

Length 223 m; draft 11.2 m.

Type: Ship (hazmat cat A). MMSI: 563102000.

Date/timePositionNaut miles runAvg speedWind from/ knotsBaromVisibWave heightAir tempDewpointWater temp
2016-Sep-21 09:32N 36°08' W 005°26'0 0.0
2016-Sep-21 08:29N 36°08' W 005°26'0 0.0
2016-Sep-21 05:32N 36°08' W 005°26'0 0.0
2016-Sep-21 02:32N 36°08' W 005°26'0 0.0
2016-Sep-20 17:05N 36°08' W 005°26'0 0.0
2016-Sep-20 14:32N 36°08' W 005°26'0 0.0
2016-Sep-20 13:32N 36°08' W 005°26'8 2.7
2016-Sep-20 10:34N 36°06' W 005°17'5 1.5
2016-Sep-20 07:18N 36°08' W 005°11'132 5.5
2016-Sep-19 07:33N 36°24' W 002°29'1110.4
2016-Sep-19 06:32N 36°25' W 002°16'  
2016-Sep-16 12:15N 37°00' E 012°10'3011.0
2016-Sep-16 09:33N 36°52' E 012°45'2311.3
2016-Sep-16 07:34N 36°45' E 013°12'4511.3
2016-Sep-16 03:33N 36°32' E 014°07'1111.4
2016-Sep-16 02:34N 36°30' E 014°20'2110.5
2016-Sep-16 00:33N 36°23' E 014°45'2211.0
2016-Sep-15 22:34N 36°20' E 015°12'2210.9
2016-Sep-15 20:30N 36°20' E 015°40'37210.3
2016-Sep-14 08:15N 36°52' E 023°22'710.1
2016-Sep-14 07:32N 36°59' E 023°26'4410.8
2016-Sep-14 03:28N 37°31' E 024°04'  

Dump ship's entire track history